LiveATC.Net - Listen to live air traffic control over the Internet!


ICAO: KCOU  IATA: COU   Airport: Columbia Regional Airport
City: Columbia   State/Province: Missouri
Country: United States   Continent: North America
KCOU METAR Weather: KCOU 200954Z AUTO 35012KT 10SM CLR M14/M19 A3058 RMK AO2 SLP371 T11391194 TSNO
KCOU Flight Activity (FlightAware)
KCOU Airport Info   (iFlightPlanner)
KCOU VFR Sectional Chart   (iFlightPlanner) 
KCOU IFR Low Altitude Chart   (iFlightPlanner) 
KCOU IFR High Altitude Chart   (iFlightPlanner) 

KCOU CTAF/Gnd/App
Feed Status: UP   Listeners: 0
Listen in your browser - HTML5 player (in browser, HTML5)
Click here to listen with your own player (launches your MP3 player)
Archive Access: KCOU CTAF/Gnd/App
FacilityFrequency
Columbia CTAF119.300
Columbia Ground121.600
Columbia UNICOM122.950
Mizzou Approach/Departure124.375

NOTICE

Unauthorized use prohibited. See LiveATC.net Terms of Service


Airport/ARTCC Code
Frequency Search
(e.g., 124.400, 128.75)
Site-wide search
 


Browse Feeds
Top 50 Feeds
HF Oceanic Feeds
Coverage Map
Bad Weather Areas

LiveATC FAQ
Offer LiveATC feed
Contact LiveATC.net
Press Inquiries

LiveATC on iPhone
LiveATC on Android

LiveATC Mobile
(Mobile browser)

ATC Audio Archives
Interesting Recordings

LiveATC Forums


Home Page
About LiveATC.net
Make a Donation
Terms of Use
Privacy Policy

Canadian Air Freqs

AIRMETs/SIGMETs

FAA Airport Status
NAS Status
Arrival Demand


Server Software By:
Icecast.org
Liquidsoap